Ayr, ND

12:58 PM CDT on July 24, 2014 (GMT -0500)
Home of the Absaraka Crows (KNDABSAR2) Elev 1066 ft | 46.98 °N, 97.39 °W | Change Station

Current weather conditions updated 0 second ago

Partly Cloudy
Partly Cloudy
65.7 °F
Feels Like 65.7 °F
N
3.8
Wind Variable Wind from East
Gusts 5.4 mph

Today is forecast to be Cooler than yesterday. Thunderstorms developing late tonight.

Today
High -- | Low -- °F
--% Chance of Precip.
Yesterday
High -- | Low -- °F
Precip. -- in
6:00 AM 9:12 PM
Waning Crescent, 4% visible
Pressure 29.93 in
Visibility 10.0 miles
Clouds Clear
Dew Point 50 °F
Humidity 56%
Rainfall 0.04 in
Snow Depth Not available.
UV 10 out of 12
Pollen 7.40 out of 12
Air Quality Not available.
Flu Activity Not available.
METAR KBAC 241755Z AUTO 11011G15KT 10SM CLR 18/18 A2993 RMK AO2 LTG DSNT SE AND S

More Conditions Fewer Conditions

Pressure 29.93 in
Visibility 10.0 miles
Clouds Clear
Dew Point 50 °F
Humidity 56%
Rainfall 0.04 in
Snow Depth Not available.
UV 10 out of 12
Pollen 7.40 out of 12
Air Quality Not available.
Flu Activity Not available.
METAR KBAC 241755Z AUTO 11011G15KT 10SM CLR 18/18 A2993 RMK AO2 LTG DSNT SE AND S

More Conditions Fewer Conditions

Nowcast | as of 11:57 am CDT on July 24, 2014

Wind gusts in the vicinity of departing precipitation may briefly reach 50 mph early this afternoon along a north to south line from Jesse to Fingal. This condition will persist through 100 PM this afternoon.

×

10-Day Weather Forecast

Almanac

Astronomy

Jul. 24, 2014 Rise Set
Actual Time 6:00 AM CDT 9:12 PM CDT
Civil Twilight 5:23 AM CDT 9:49 PM CDT
Nautical Twilight 4:35 AM CDT 10:37 PM CDT
Astronomical Twilight 3:35 AM CDT 11:36 PM CDT
Moon 4:10 AM CDT 7:26 PM CDT
Length of Visible Light 16h 26m
Length of Day
15h 12m
Tomorrow will be 2m 19s shorter.
Waning Crescent, 4% of the Moon is Illuminated
Today
Waning Crescent
Jul 26
New
Aug 3
First Quarter
Aug 10
Full
Aug 17
Last Quarter

Today's Extremes

State Highs State Lows

Community

WunderPhotos

Upload Photos

1,737,079 photos uploaded!

Nearby

Snow Depth

Station Depth Elevation
No new snow has been reported.

Earthquake Activity

City Distance Mag. Time & Date
No recent earthquake activity has been reported nearby.
Minimum magnitude displayed is 2.5.

Coastal Water Temperatures

Place Temperature
No Stations Reporting

Nearby Weather Stations

Station Location Temp. Dew Point Humidity Wind Precip. Elev Updated Type
Home of the Absaraka Crows, Absaraka, ND 65.7 °F 50 °F 56% East  at  3.8 mph 0.02 in / hr 1066 ft 12:58 PM CDT Rapid Fire
Valley City State University, Valley City, ND 65.5 °F - 84% ESE  at  6.0 mph 0.00 in / hr 1220 ft 12:51 PM CDT Normal

Show More Stations Show Fewer Stations